^^
Saratoga-Weather Station Historical Data
Daily Summary for June 29, 2021 Units:  English    Metric   Both
Daily Weekly Monthly Yearly Custom
  High: Low: Average:
Temperature: 50.7 °F 49.8 °F 50.2 °F
Dew Point: 49.6 °F 48.4 °F 48.7 °F
Humidity: 96% 95% 95%
Wind Speed: 6mph 0mph 1.6mph
Wind Gust: 8mph - -
Wind- - WNW
Pressure: 29.6 in 29.6 in -
Precipitation: 0.06 in    
Historical Graphs
 
 
Tabular Data for June 29, 2021
Time Temperature Dew Point Pressure Wind Wind Speed Wind Gust Humidity Rainfall Rate (Hourly) solar
00:03 49.8 °F 48.4 °F 29.6 in NNW 2 mph 4 mph 95% 0.05 in 0 W/m2
00:08 49.8 °F 48.4 °F 29.6 in West 2.9 mph 8 mph 95% 0.05 in 0 W/m2
00:13 49.8 °F 48.4 °F 29.6 in North 2 mph 2 mph 95% 0.04 in 0 W/m2
00:18 49.8 °F 48.4 °F 29.6 in Calm   7 mph 95% 0.03 in 0 W/m2
00:23 49.8 °F 48.4 °F 29.6 in West 2 mph 2 mph 95% 0.03 in 0 W/m2
00:28 49.8 °F 48.4 °F 29.6 in Calm   2 mph 95% 0.02 in 0 W/m2
00:33 50 °F 48.6 °F 29.6 in Calm   4 mph 95% 0.02 in 0 W/m2
00:38 50 °F 48.6 °F 29.6 in NW 0.9 mph 4 mph 95% 0.02 in 0 W/m2
00:43 50 °F 48.6 °F 29.6 in Calm   3 mph 95% 0.02 in 0 W/m2
00:48 50 °F 48.6 °F 29.6 in NNW 2 mph 4 mph 95% 0.02 in 0 W/m2
00:53 50 °F 48.6 °F 29.6 in Calm     95% 0.02 in 0 W/m2
00:58 50.2 °F 48.7 °F 29.6 in North 0.9 mph 4 mph 95% 0.01 in 0 W/m2
01:03 50.2 °F 48.7 °F 29.6 in West 2 mph 2 mph 95% 0.02 in 0 W/m2
01:08 50.2 °F 48.7 °F 29.6 in WNW 2.9 mph 3 mph 95% 0.03 in 0 W/m2
01:13 50.2 °F 49.1 °F 29.6 in North 0.9 mph 2 mph 96% 0.05 in 0 W/m2
01:18 50.2 °F 49.1 °F 29.6 in NW 0.9 mph 3 mph 96% 0.05 in 0 W/m2
01:23 50.4 °F 49.3 °F 29.6 in WSW 2.9 mph 6 mph 96% 0.06 in 0 W/m2
01:28 50.4 °F 49.3 °F 29.6 in WNW 6 mph 7 mph 96% 0.06 in 0 W/m2
01:33 50.5 °F 49.5 °F 29.6 in NNW 0.9 mph 2 mph 96% 0.06 in 0 W/m2
01:38 50.5 °F 49.5 °F 29.6 in WNW 2 mph 8 mph 96% 0.06 in 0 W/m2
01:43 50.7 °F 49.6 °F 29.6 in SW 2 mph 4 mph 96% 0.06 in 0 W/m2
Juneau County Weather
Compliments of Weather Underground - 2 mb